Time;durP1;ratioP1;P1;durP2;ratioP2;P2;SDS_P1;SDS_P2;PMS_P1;PMS_P2;Temp;Humidity;BMP_temperature;BMP_pressure;BME280_temperature;BME280_humidity;BME280_pressure;Samples;Min_cycle;Max_cycle;Signal;HPM_P1;HPM_P2
2023/12/27 00:01:59;;;;;;;13.53;9.40;;;1.70;99.90;;;;;;5034776;28;20208;-62
2023/12/27 00:04:26;;;;;;;12.17;8.67;;;1.70;99.90;;;;;;5046666;28;20579;-61
2023/12/27 00:06:56;;;;;;;11.40;8.47;;;1.60;99.90;;;;;;5053773;28;20223;-61
2023/12/27 00:09:24;;;;;;;12.97;8.80;;;1.60;99.90;;;;;;5044416;28;20673;-61
2023/12/27 00:11:56;;;;;;;12.60;9.47;;;1.60;99.90;;;;;;5037255;28;20204;-61
2023/12/27 00:14:23;;;;;;;12.50;10.37;;;1.50;99.90;;;;;;5044507;28;20200;-61
2023/12/27 00:16:50;;;;;;;11.80;10.57;;;1.40;99.90;;;;;;5034082;28;20216;-61
2023/12/27 00:19:17;;;;;;;11.83;10.00;;;1.40;99.90;;;;;;5032138;28;20205;-61
2023/12/27 00:21:44;;;;;;;11.00;9.87;;;1.30;99.90;;;;;;5034138;28;20233;-61
2023/12/27 00:24:11;;;;;;;9.07;8.00;;;1.20;99.90;;;;;;5033004;28;20262;-62
2023/12/27 00:26:38;;;;;;;9.27;8.13;;;1.20;99.90;;;;;;5033226;28;20773;-61
2023/12/27 00:29:06;;;;;;;10.07;8.90;;;1.20;99.90;;;;;;5034257;28;20741;-62
2023/12/27 00:31:33;;;;;;;9.70;7.27;;;1.20;99.90;;;;;;5037705;28;20204;-61
2023/12/27 00:34:00;;;;;;;8.53;7.73;;;1.30;99.90;;;;;;5033448;28;20266;-62
2023/12/27 00:36:29;;;;;;;8.23;5.90;;;1.20;99.90;;;;;;5033251;28;20224;-61
2023/12/27 00:38:56;;;;;;;10.53;7.63;;;1.20;99.90;;;;;;5021567;28;20208;-61
2023/12/27 00:41:23;;;;;;;7.53;6.77;;;1.20;99.90;;;;;;5036205;28;20697;-62
2023/12/27 00:43:50;;;;;;;8.33;7.13;;;1.20;99.90;;;;;;5041684;28;20273;-61
2023/12/27 00:46:18;;;;;;;7.90;7.10;;;1.40;99.90;;;;;;5033535;28;20239;-61
2023/12/27 00:48:45;;;;;;;10.00;7.77;;;1.30;99.90;;;;;;5031238;28;20258;-61
2023/12/27 00:51:19;;;;;;;11.77;7.57;;;1.20;99.90;;;;;;5039016;28;20208;-61
2023/12/27 00:53:46;;;;;;;9.70;8.73;;;1.30;99.90;;;;;;5043601;28;20298;-62
2023/12/27 00:56:13;;;;;;;13.17;8.07;;;1.20;99.90;;;;;;5046111;28;20216;-63
2023/12/27 00:58:40;;;;;;;9.57;7.67;;;1.20;99.90;;;;;;5033413;28;20266;-61
2023/12/27 01:01:07;;;;;;;9.77;7.50;;;1.20;99.90;;;;;;5033147;28;20199;-61
2023/12/27 01:03:35;;;;;;;8.00;7.03;;;1.20;99.90;;;;;;5031066;28;20254;-61
2023/12/27 01:06:03;;;;;;;11.03;7.50;;;1.10;99.90;;;;;;5041710;28;20223;-61
2023/12/27 01:08:29;;;;;;;9.73;8.33;;;1.10;99.90;;;;;;5043307;28;20270;-62
2023/12/27 01:10:56;;;;;;;11.27;9.07;;;1.20;99.90;;;;;;5037770;28;20202;-63
2023/12/27 01:13:23;;;;;;;13.97;9.00;;;1.10;99.90;;;;;;5050547;28;20261;-61
2023/12/27 01:15:50;;;;;;;14.43;9.27;;;1.10;99.90;;;;;;5031975;28;20269;-60
2023/12/27 01:18:17;;;;;;;11.43;8.53;;;1.00;99.90;;;;;;5031921;28;20197;-61
2023/12/27 01:20:46;;;;;;;11.40;8.13;;;0.90;99.90;;;;;;5040662;28;20262;-60
2023/12/27 01:23:13;;;;;;;11.70;8.60;;;1.00;99.90;;;;;;5031261;28;20208;-61
2023/12/27 01:25:40;;;;;;;9.77;8.50;;;0.90;99.90;;;;;;5032472;28;20269;-60
2023/12/27 01:28:07;;;;;;;9.17;7.40;;;1.00;99.90;;;;;;5044993;28;20271;-61
2023/12/27 01:30:34;;;;;;;11.10;8.57;;;0.90;99.90;;;;;;5037909;28;20755;-61
2023/12/27 01:33:01;;;;;;;9.03;8.10;;;1.00;99.90;;;;;;5035910;28;20285;-61
2023/12/27 01:35:28;;;;;;;10.60;8.23;;;1.10;99.90;;;;;;5032484;28;20303;-61
2023/12/27 01:37:57;;;;;;;10.13;8.73;;;1.10;99.90;;;;;;5031425;28;20861;-60
2023/12/27 01:40:24;;;;;;;9.47;7.90;;;1.10;99.90;;;;;;5012213;28;20257;-60
2023/12/27 01:42:51;;;;;;;12.20;8.70;;;1.10;99.90;;;;;;5021901;28;20272;-61
2023/12/27 01:45:18;;;;;;;8.17;6.70;;;1.10;99.90;;;;;;5040557;28;20216;-61
2023/12/27 01:47:46;;;;;;;6.40;5.80;;;1.20;99.90;;;;;;5051490;28;20223;-61
2023/12/27 01:50:13;;;;;;;7.70;6.27;;;1.10;99.90;;;;;;5024715;28;20580;-61
2023/12/27 01:52:42;;;;;;;8.10;5.87;;;1.00;99.90;;;;;;5030934;28;20207;-61
2023/12/27 01:55:11;;;;;;;8.80;6.60;;;1.00;99.90;;;;;;5031580;28;20200;-61
2023/12/27 01:57:39;;;;;;;8.67;5.77;;;1.00;99.90;;;;;;5047575;28;20302;-61
2023/12/27 02:00:07;;;;;;;6.73;6.03;;;1.00;99.90;;;;;;5046467;28;20261;-61
2023/12/27 02:02:34;;;;;;;7.37;6.37;;;1.00;99.90;;;;;;5042408;28;20581;-61
2023/12/27 02:05:01;;;;;;;6.73;5.70;;;1.00;99.90;;;;;;5021187;28;20204;-61
2023/12/27 02:07:28;;;;;;;6.93;6.13;;;0.90;99.90;;;;;;5031588;28;20224;-62
2023/12/27 02:09:56;;;;;;;6.63;5.07;;;1.00;99.90;;;;;;5037101;28;20207;-62
2023/12/27 02:12:31;;;;;;;6.37;5.77;;;1.00;99.90;;;;;;5048194;28;20224;-62
2023/12/27 02:14:58;;;;;;;7.07;6.37;;;1.00;99.90;;;;;;5044494;28;20203;-62
2023/12/27 02:17:27;;;;;;;11.23;7.57;;;1.00;99.90;;;;;;5021654;28;20216;-62
2023/12/27 02:19:54;;;;;;;8.53;6.83;;;1.00;99.90;;;;;;5017662;28;20287;-62
2023/12/27 02:22:23;;;;;;;8.43;7.27;;;1.10;99.90;;;;;;5039937;28;20200;-62
2023/12/27 02:24:52;;;;;;;9.43;6.90;;;1.00;99.90;;;;;;5046397;28;20245;-62
2023/12/27 02:27:19;;;;;;;8.50;7.00;;;1.00;99.90;;;;;;5042201;28;20223;-62
2023/12/27 02:29:46;;;;;;;8.47;6.90;;;1.00;99.90;;;;;;5051301;28;20222;-62
2023/12/27 02:32:13;;;;;;;7.57;6.87;;;0.90;99.90;;;;;;5037810;28;20236;-62
2023/12/27 02:34:40;;;;;;;8.23;6.97;;;0.90;99.90;;;;;;5035742;28;20254;-62
2023/12/27 02:37:07;;;;;;;6.17;5.63;;;0.90;99.90;;;;;;5030681;28;20223;-62
2023/12/27 02:39:34;;;;;;;8.70;6.97;;;0.90;99.90;;;;;;5030901;28;20203;-61
2023/12/27 02:42:02;;;;;;;9.83;6.90;;;1.00;99.90;;;;;;5031800;28;20206;-62
2023/12/27 02:44:29;;;;;;;7.93;6.30;;;1.00;99.90;;;;;;5020002;28;20197;-61
2023/12/27 02:46:57;;;;;;;6.93;6.30;;;0.90;99.90;;;;;;5040887;28;20228;-62
2023/12/27 02:49:24;;;;;;;7.43;6.63;;;1.00;99.90;;;;;;5052256;28;20263;-62
2023/12/27 02:51:51;;;;;;;9.13;7.60;;;1.00;99.90;;;;;;5055641;28;20214;-62
2023/12/27 02:54:18;;;;;;;7.83;7.10;;;1.00;99.90;;;;;;5032931;28;20247;-62
2023/12/27 02:56:45;;;;;;;9.60;5.97;;;1.10;99.90;;;;;;5035540;28;20808;-62
2023/12/27 02:59:13;;;;;;;7.87;6.73;;;1.20;99.90;;;;;;5033884;28;20203;-62
2023/12/27 03:01:40;;;;;;;9.53;7.30;;;1.10;99.90;;;;;;5053677;28;20246;-62
2023/12/27 03:04:07;;;;;;;7.83;7.03;;;1.10;99.90;;;;;;5047961;28;20208;-62
2023/12/27 03:06:34;;;;;;;7.80;6.27;;;1.10;99.90;;;;;;5035102;28;20239;-62
2023/12/27 03:09:01;;;;;;;9.43;5.63;;;1.10;99.90;;;;;;5034845;28;20262;-62
2023/12/27 03:11:29;;;;;;;4.93;4.50;;;1.10;99.90;;;;;;5043169;28;20570;-62
2023/12/27 03:13:56;;;;;;;6.33;5.13;;;1.20;99.90;;;;;;5045013;28;20334;-62
2023/12/27 03:16:24;;;;;;;7.53;5.17;;;1.10;99.90;;;;;;5044045;28;20217;-62
2023/12/27 03:18:51;;;;;;;4.90;4.40;;;1.10;99.90;;;;;;5035104;28;20643;-62
2023/12/27 03:21:18;;;;;;;9.97;7.47;;;1.20;99.90;;;;;;5037513;28;20621;-62
2023/12/27 03:23:45;;;;;;;7.17;6.27;;;1.20;99.90;;;;;;5038991;28;20208;-62
2023/12/27 03:26:12;;;;;;;6.87;5.37;;;1.30;99.90;;;;;;5034899;28;20278;-62
2023/12/27 03:28:39;;;;;;;6.63;4.90;;;1.20;99.90;;;;;;5034660;28;20204;-61
2023/12/27 03:31:06;;;;;;;6.90;4.57;;;0.60;99.90;;;;;;5034797;28;20200;-62
2023/12/27 03:33:35;;;;;;;6.43;5.47;;;1.10;99.90;;;;;;5032695;28;20204;-62
2023/12/27 03:36:02;;;;;;;6.43;5.20;;;1.10;99.90;;;;;;5034917;28;20221;-61
2023/12/27 03:38:29;;;;;;;4.40;4.10;;;1.10;99.90;;;;;;5035380;28;20200;-62
2023/12/27 03:40:56;;;;;;;6.73;5.13;;;1.10;99.90;;;;;;5038693;28;20660;-61
2023/12/27 03:43:23;;;;;;;6.40;4.93;;;1.10;99.90;;;;;;5033815;28;20197;-63
2023/12/27 03:45:51;;;;;;;6.00;4.97;;;1.10;99.90;;;;;;5034140;28;20292;-61
2023/12/27 03:48:18;;;;;;;5.77;5.10;;;1.00;99.90;;;;;;5034488;28;20226;-62
2023/12/27 03:50:46;;;;;;;7.77;5.53;;;0.90;99.90;;;;;;5033119;28;20206;-61
2023/12/27 03:53:13;;;;;;;6.40;5.80;;;1.00;99.90;;;;;;5034244;28;20204;-62
2023/12/27 03:55:43;;;;;;;6.53;5.13;;;1.00;99.90;;;;;;5033972;28;20209;-62
2023/12/27 03:58:10;;;;;;;7.80;6.23;;;1.00;99.90;;;;;;5033985;28;20197;-61
2023/12/27 04:00:37;;;;;;;9.00;6.40;;;0.90;99.90;;;;;;5033886;28;20234;-62
2023/12/27 04:03:04;;;;;;;7.37;5.23;;;0.90;99.90;;;;;;5033104;28;20246;-61
2023/12/27 04:05:31;;;;;;;7.47;6.10;;;0.90;99.90;;;;;;5033748;28;20256;-61
2023/12/27 04:08:00;;;;;;;6.20;5.67;;;0.90;99.90;;;;;;5033837;28;20216;-62
2023/12/27 04:10:31;;;;;;;7.73;5.70;;;0.80;99.90;;;;;;5033237;28;20625;-62
2023/12/27 04:12:58;;;;;;;7.20;6.50;;;0.90;99.90;;;;;;5034231;28;20250;-62
2023/12/27 04:15:25;;;;;;;6.87;6.17;;;0.80;99.90;;;;;;5042212;28;20201;-62
2023/12/27 04:17:52;;;;;;;5.97;5.37;;;0.80;99.90;;;;;;5032029;28;20245;-62
2023/12/27 04:20:19;;;;;;;6.77;6.00;;;0.80;99.90;;;;;;5040866;28;20227;-61
2023/12/27 04:22:46;;;;;;;9.63;6.77;;;0.70;99.90;;;;;;5034465;28;20211;-61
2023/12/27 04:25:14;;;;;;;9.30;6.20;;;0.70;99.90;;;;;;5042083;28;20219;-62
2023/12/27 04:27:41;;;;;;;6.67;5.73;;;0.60;99.90;;;;;;5032509;28;20227;-61
2023/12/27 04:30:09;;;;;;;6.13;5.53;;;0.60;99.90;;;;;;5033458;28;20210;-62
2023/12/27 04:32:36;;;;;;;6.67;5.33;;;0.50;99.90;;;;;;5032842;28;20226;-61
2023/12/27 04:35:03;;;;;;;4.87;4.33;;;0.50;99.90;;;;;;5031335;28;20202;-62
2023/12/27 04:37:30;;;;;;;5.70;4.53;;;0.60;99.90;;;;;;5033784;28;20220;-62
2023/12/27 04:39:57;;;;;;;5.33;4.23;;;0.60;99.90;;;;;;5033839;28;20204;-62
2023/12/27 04:42:25;;;;;;;6.77;5.07;;;0.70;99.90;;;;;;5037199;28;20230;-62
2023/12/27 04:44:52;;;;;;;5.10;3.83;;;0.70;99.90;;;;;;5033196;28;20226;-61
2023/12/27 04:47:19;;;;;;;3.47;3.27;;;0.80;99.90;;;;;;5033787;28;20220;-62
2023/12/27 04:49:47;;;;;;;4.43;4.03;;;0.80;99.90;;;;;;5032566;28;20214;-62
2023/12/27 04:52:15;;;;;;;2.83;2.63;;;0.80;99.90;;;;;;5030671;28;20250;-62
2023/12/27 04:54:42;;;;;;;5.60;3.10;;;0.90;99.90;;;;;;5032898;28;20208;-62
2023/12/27 04:57:09;;;;;;;3.97;3.07;;;1.00;99.90;;;;;;5035320;28;20695;-61
2023/12/27 04:59:37;;;;;;;3.37;3.17;;;1.00;99.90;;;;;;5032276;28;20630;-61
2023/12/27 05:02:04;;;;;;;3.03;2.83;;;1.00;99.90;;;;;;5041191;28;20204;-61
2023/12/27 05:04:31;;;;;;;2.67;1.93;;;1.00;99.90;;;;;;5032800;28;20253;-62
2023/12/27 05:06:58;;;;;;;3.03;2.53;;;1.20;99.90;;;;;;5031893;28;20219;-61
2023/12/27 05:09:25;;;;;;;4.10;3.20;;;1.20;99.90;;;;;;5030266;28;20200;-62
2023/12/27 05:11:56;;;;;;;4.30;3.90;;;1.20;99.90;;;;;;5032463;28;20200;-61
2023/12/27 05:14:23;;;;;;;3.87;3.33;;;1.20;99.90;;;;;;5032334;28;20212;-62
2023/12/27 05:16:55;;;;;;;6.60;4.30;;;1.20;99.90;;;;;;5032482;28;20219;-61
2023/12/27 05:19:21;;;;;;;4.30;3.83;;;1.10;99.90;;;;;;5030337;28;20197;-62
2023/12/27 05:21:48;;;;;;;4.07;3.70;;;1.00;99.90;;;;;;5031930;28;20268;-62
2023/12/27 05:24:15;;;;;;;5.07;4.60;;;0.90;99.90;;;;;;5032655;28;20248;-61
2023/12/27 05:26:42;;;;;;;4.70;4.07;;;0.90;99.90;;;;;;5032023;28;20765;-61
2023/12/27 05:29:10;;;;;;;5.13;3.50;;;0.70;99.90;;;;;;5032120;28;20691;-62
2023/12/27 05:31:37;;;;;;;7.43;3.60;;;0.70;99.90;;;;;;5031980;28;20210;-62
2023/12/27 05:34:07;;;;;;;4.93;3.70;;;0.70;99.90;;;;;;5032201;28;20671;-62
2023/12/27 05:36:33;;;;;;;3.77;3.43;;;0.70;99.90;;;;;;5029988;28;20270;-62
2023/12/27 05:39:00;;;;;;;3.40;3.10;;;0.70;99.90;;;;;;5032193;28;20204;-61
2023/12/27 05:41:27;;;;;;;3.37;3.10;;;0.70;99.90;;;;;;5030875;28;20195;-61
2023/12/27 05:43:55;;;;;;;5.77;4.00;;;0.70;99.90;;;;;;5032028;28;20203;-62
2023/12/27 05:46:22;;;;;;;6.17;3.93;;;0.70;99.90;;;;;;5031869;28;20225;-62
2023/12/27 05:48:49;;;;;;;4.67;4.20;;;0.70;99.90;;;;;;5031568;28;20205;-62
2023/12/27 05:51:17;;;;;;;10.97;5.03;;;0.70;99.90;;;;;;5032281;28;20199;-62
2023/12/27 05:53:44;;;;;;;4.77;3.53;;;0.60;99.90;;;;;;5030846;28;20201;-62
2023/12/27 05:56:11;;;;;;;5.23;3.90;;;0.70;99.90;;;;;;5031784;28;20219;-62
2023/12/27 05:58:39;;;;;;;6.30;4.20;;;0.70;99.90;;;;;;5031376;28;20670;-61
2023/12/27 06:01:06;;;;;;;4.60;3.77;;;0.60;99.90;;;;;;5031769;28;20260;-62
2023/12/27 06:03:33;;;;;;;6.43;4.53;;;0.70;99.90;;;;;;5031952;28;20210;-62
2023/12/27 06:06:00;;;;;;;8.13;4.50;;;0.70;99.90;;;;;;5030618;28;20228;-62
2023/12/27 06:08:28;;;;;;;5.10;3.83;;;0.70;99.90;;;;;;5030612;28;20226;-61
2023/12/27 06:10:55;;;;;;;11.73;7.43;;;0.80;99.90;;;;;;5031719;28;20243;-62
2023/12/27 06:13:22;;;;;;;9.70;5.50;;;0.70;99.90;;;;;;5038802;28;20719;-62
2023/12/27 06:15:49;;;;;;;3.93;3.63;;;0.70;99.90;;;;;;5032205;28;20722;-62
2023/12/27 06:18:16;;;;;;;4.50;3.70;;;0.80;99.90;;;;;;5031565;28;20638;-62
2023/12/27 06:20:43;;;;;;;6.00;4.87;;;0.70;99.90;;;;;;5029370;28;20203;-62
2023/12/27 06:23:10;;;;;;;4.40;4.13;;;0.80;99.90;;;;;;5031757;28;20203;-62
2023/12/27 06:25:39;;;;;;;6.23;4.07;;;0.80;99.90;;;;;;5031266;28;20208;-62
2023/12/27 06:28:06;;;;;;;5.50;4.47;;;0.70;99.90;;;;;;5031265;28;20699;-62
2023/12/27 06:30:33;;;;;;;4.60;3.70;;;0.70;99.90;;;;;;5031483;28;20746;-62
2023/12/27 06:33:01;;;;;;;5.30;3.93;;;0.70;99.90;;;;;;5038009;28;20663;-62
2023/12/27 06:35:28;;;;;;;7.23;4.70;;;0.70;99.90;;;;;;5030981;28;20289;-63
2023/12/27 06:37:55;;;;;;;3.83;3.60;;;0.70;99.90;;;;;;5028959;28;20239;-62
2023/12/27 06:40:22;;;;;;;4.50;4.10;;;0.60;99.90;;;;;;5030992;28;20205;-62
2023/12/27 06:42:50;;;;;;;6.07;4.93;;;0.60;99.90;;;;;;5033979;28;20212;-62
2023/12/27 06:45:17;;;;;;;4.23;3.17;;;0.60;99.90;;;;;;5031276;28;20583;-62
2023/12/27 06:47:45;;;;;;;4.20;3.80;;;0.70;99.90;;;;;;5030235;28;20719;-62
2023/12/27 06:50:12;;;;;;;5.00;4.10;;;0.70;99.90;;;;;;5036192;28;20198;-62
2023/12/27 06:52:39;;;;;;;3.43;3.13;;;0.80;99.90;;;;;;5031472;28;20269;-62
2023/12/27 06:55:08;;;;;;;3.93;3.63;;;0.80;99.90;;;;;;5030309;28;20196;-62
2023/12/27 06:57:36;;;;;;;4.93;4.47;;;0.70;99.90;;;;;;5034910;28;20282;-62
2023/12/27 07:00:07;;;;;;;4.10;3.30;;;0.70;99.90;;;;;;5031776;28;20260;-62
2023/12/27 07:02:34;;;;;;;5.13;3.73;;;0.70;99.90;;;;;;5038266;28;20286;-62
2023/12/27 07:05:02;;;;;;;4.17;3.53;;;0.60;99.90;;;;;;5031413;28;20261;-62
2023/12/27 07:07:29;;;;;;;4.90;3.33;;;0.60;99.90;;;;;;5031673;28;20358;-62
2023/12/27 07:09:57;;;;;;;6.33;3.13;;;0.60;99.90;;;;;;5029689;28;20200;-62
2023/12/27 07:12:24;;;;;;;3.37;3.07;;;0.60;99.90;;;;;;5031011;28;20582;-62
2023/12/27 07:14:51;;;;;;;4.87;3.37;;;0.50;99.90;;;;;;5033845;28;20286;-62
2023/12/27 07:17:20;;;;;;;6.13;4.10;;;0.50;99.90;;;;;;5031291;28;20219;-62
2023/12/27 07:19:47;;;;;;;3.30;3.07;;;0.60;99.90;;;;;;5029873;28;20264;-62
2023/12/27 07:22:14;;;;;;;3.30;3.07;;;0.60;99.90;;;;;;5029399;28;20208;-62
2023/12/27 07:24:44;;;;;;;9.90;5.57;;;0.60;99.90;;;;;;5030812;28;20624;-62
2023/12/27 07:27:11;;;;;;;7.23;5.93;;;0.70;99.90;;;;;;5032251;28;20711;-62
2023/12/27 07:29:38;;;;;;;6.47;5.90;;;0.90;99.90;;;;;;5029132;28;20614;-62
2023/12/27 07:32:06;;;;;;;62.70;41.03;;;0.80;99.90;;;;;;5034415;28;20208;-62
2023/12/27 07:34:34;;;;;;;55.57;35.67;;;0.80;99.90;;;;;;5037303;28;20203;-61
2023/12/27 07:37:04;;;;;;;49.67;31.63;;;0.80;99.90;;;;;;5026995;28;20220;-61
2023/12/27 07:39:32;;;;;;;24.27;16.97;;;0.80;99.90;;;;;;5034315;28;20295;-61
2023/12/27 07:42:00;;;;;;;20.80;14.73;;;0.70;99.90;;;;;;5033066;28;20200;-61
2023/12/27 07:44:27;;;;;;;17.70;12.67;;;0.60;99.90;;;;;;5034584;28;20297;-61
2023/12/27 07:46:57;;;;;;;17.27;14.10;;;0.40;99.90;;;;;;5033694;28;20649;-61
2023/12/27 07:49:25;;;;;;;18.43;13.07;;;0.70;99.90;;;;;;5039808;28;20259;-61
2023/12/27 07:51:53;;;;;;;19.60;13.00;;;0.70;99.90;;;;;;5040977;28;20209;-61
2023/12/27 07:54:21;;;;;;;18.87;14.33;;;0.70;99.90;;;;;;5036560;28;20665;-62
2023/12/27 07:56:48;;;;;;;18.20;14.67;;;0.70;99.90;;;;;;5031948;28;20449;-62
2023/12/27 07:59:15;;;;;;;19.10;15.30;;;0.70;99.90;;;;;;5035604;28;20257;-61
2023/12/27 08:01:42;;;;;;;18.40;13.07;;;0.80;99.90;;;;;;5034528;28;20672;-61
2023/12/27 08:04:10;;;;;;;18.07;12.73;;;0.80;99.90;;;;;;5043989;28;20201;-61
2023/12/27 08:06:37;;;;;;;17.73;12.60;;;0.80;99.90;;;;;;5039980;28;20221;-61
2023/12/27 08:09:05;;;;;;;13.93;10.87;;;0.90;99.90;;;;;;5038484;28;20223;-61
2023/12/27 08:11:32;;;;;;;13.40;10.50;;;1.00;99.90;;;;;;5040114;28;20210;-61
2023/12/27 08:14:00;;;;;;;14.33;11.47;;;1.00;99.90;;;;;;5033222;28;20203;-69
2023/12/27 08:16:27;;;;;;;16.13;11.87;;;1.10;99.90;;;;;;5035852;28;20220;-69
2023/12/27 08:18:57;;;;;;;19.43;13.20;;;1.30;99.90;;;;;;5051786;28;20233;-65
2023/12/27 08:21:28;;;;;;;14.10;11.77;;;1.50;99.90;;;;;;5034314;28;20204;-68
2023/12/27 08:23:55;;;;;;;14.93;12.30;;;1.50;99.90;;;;;;5036850;28;20227;-68
2023/12/27 08:26:23;;;;;;;18.17;12.50;;;1.80;99.90;;;;;;5033075;28;20235;-66
2023/12/27 08:28:50;;;;;;;18.37;10.60;;;2.00;99.90;;;;;;5032838;28;20232;-65
2023/12/27 08:31:17;;;;;;;10.23;8.90;;;2.10;99.90;;;;;;5035663;28;20672;-67
2023/12/27 08:33:48;;;;;;;13.87;9.13;;;2.30;99.90;;;;;;5038996;28;20720;-69
2023/12/27 08:36:15;;;;;;;15.10;9.53;;;2.40;99.90;;;;;;5039368;28;20223;-69
2023/12/27 08:38:42;;;;;;;14.13;9.77;;;2.70;99.90;;;;;;5030208;28;20223;-70
2023/12/27 08:41:09;;;;;;;14.13;9.40;;;2.90;99.90;;;;;;5032316;28;20206;-67
2023/12/27 08:43:39;;;;;;;26.17;14.40;;;2.90;99.90;;;;;;5038711;28;20259;-68
2023/12/27 08:46:09;;;;;;;16.67;11.90;;;3.20;99.90;;;;;;5033503;28;20763;-70
2023/12/27 08:48:36;;;;;;;13.50;9.67;;;3.50;99.90;;;;;;5029517;28;20220;-60
2023/12/27 08:51:03;;;;;;;15.23;9.00;;;3.60;99.90;;;;;;5039348;28;20196;-60
2023/12/27 08:53:30;;;;;;;13.43;8.67;;;3.50;99.90;;;;;;5034631;28;20787;-66
2023/12/27 08:55:57;;;;;;;13.23;8.70;;;3.60;99.90;;;;;;5047895;28;20274;-68
2023/12/27 08:58:25;;;;;;;10.67;6.90;;;3.80;99.90;;;;;;5032806;28;20258;-68
2023/12/27 09:00:53;;;;;;;11.30;7.10;;;3.80;99.90;;;;;;5032844;28;20244;-71
2023/12/27 09:03:20;;;;;;;9.23;8.00;;;4.10;99.90;;;;;;5033433;28;20276;-69
2023/12/27 09:05:48;;;;;;;12.33;5.93;;;4.20;99.90;;;;;;5033254;28;20229;-68
2023/12/27 09:08:15;;;;;;;12.13;7.07;;;4.50;99.90;;;;;;5031675;28;20230;-69
2023/12/27 09:10:42;;;;;;;5.47;4.13;;;4.90;99.90;;;;;;5032957;28;20270;-73
2023/12/27 09:13:10;;;;;;;7.10;5.67;;;5.10;99.90;;;;;;5035562;28;20263;-69
2023/12/27 09:15:37;;;;;;;6.57;5.30;;;5.20;99.90;;;;;;5032442;28;20223;-63
2023/12/27 09:18:05;;;;;;;3.90;3.43;;;5.40;99.90;;;;;;5036699;28;20197;-66
2023/12/27 09:20:32;;;;;;;4.73;3.57;;;5.40;99.90;;;;;;5043874;28;20254;-65
2023/12/27 09:23:00;;;;;;;7.13;4.87;;;5.50;99.90;;;;;;5029606;28;20205;-64
2023/12/27 09:25:26;;;;;;;5.73;4.60;;;5.60;99.90;;;;;;5032160;28;20203;-67
2023/12/27 09:27:55;;;;;;;3.17;2.93;;;5.70;99.90;;;;;;5031209;28;20224;-65
2023/12/27 09:30:22;;;;;;;2.30;2.10;;;5.70;99.90;;;;;;5027316;28;20208;-63
2023/12/27 09:32:49;;;;;;;3.43;3.17;;;5.80;99.90;;;;;;5030384;28;20213;-63
2023/12/27 09:35:18;;;;;;;3.23;2.60;;;5.90;99.90;;;;;;5031296;28;20670;-61
2023/12/27 09:37:45;;;;;;;4.30;3.47;;;6.00;99.90;;;;;;5031389;28;20310;-61
2023/12/27 09:40:12;;;;;;;4.10;3.77;;;6.00;99.90;;;;;;5034409;28;20233;-62
2023/12/27 09:42:41;;;;;;;3.00;2.80;;;6.00;99.90;;;;;;5031131;28;20272;-63
2023/12/27 09:45:09;;;;;;;4.10;3.60;;;6.10;99.90;;;;;;5026259;28;20261;-63
2023/12/27 09:47:38;;;;;;;5.10;3.57;;;6.00;99.90;;;;;;5031159;28;20283;-64
2023/12/27 09:50:07;;;;;;;3.13;2.93;;;5.90;99.90;;;;;;5048567;28;20261;-62
2023/12/27 09:52:38;;;;;;;4.67;3.53;;;5.70;99.90;;;;;;5041995;28;20205;-62
2023/12/27 09:55:06;;;;;;;3.50;3.20;;;5.60;99.90;;;;;;5033668;28;20216;-62
2023/12/27 09:57:34;;;;;;;4.23;3.37;;;5.70;99.90;;;;;;5037823;28;20789;-61
2023/12/27 10:00:05;;;;;;;4.40;4.00;;;5.80;99.90;;;;;;5039665;28;20209;-61
2023/12/27 10:02:35;;;;;;;5.13;4.17;;;5.90;99.90;;;;;;5038627;28;20203;-64
2023/12/27 10:05:09;;;;;;;7.67;5.33;;;6.10;99.90;;;;;;5037472;28;20205;-62
2023/12/27 10:07:40;;;;;;;8.23;6.10;;;6.20;99.90;;;;;;5038554;28;20295;-61
2023/12/27 10:10:09;;;;;;;6.20;5.60;;;6.20;99.90;;;;;;5033414;28;20550;-61
2023/12/27 10:12:36;;;;;;;5.67;5.13;;;6.40;99.90;;;;;;5035289;28;20207;-64
2023/12/27 10:15:04;;;;;;;7.13;5.17;;;6.60;99.90;;;;;;5030688;28;20810;-61
2023/12/27 10:17:32;;;;;;;6.53;4.77;;;6.90;99.90;;;;;;5029349;28;20240;-62
2023/12/27 10:19:59;;;;;;;5.40;5.00;;;7.30;99.90;;;;;;5029877;28;20230;-62
2023/12/27 10:22:28;;;;;;;6.20;5.60;;;7.70;99.90;;;;;;5038151;28;20201;-62
2023/12/27 10:24:56;;;;;;;4.53;4.17;;;8.20;99.90;;;;;;5042401;28;20208;-62
2023/12/27 10:27:23;;;;;;;6.17;5.27;;;8.70;99.90;;;;;;5029960;28;20728;-61
2023/12/27 10:29:50;;;;;;;6.63;5.57;;;9.10;99.90;;;;;;5033759;28;20227;-62
2023/12/27 10:32:17;;;;;;;5.93;5.53;;;9.50;99.90;;;;;;5046258;28;20260;-62
2023/12/27 10:34:46;;;;;;;6.63;5.27;;;9.60;99.90;;;;;;5032542;28;20202;-62
2023/12/27 10:37:13;;;;;;;7.50;5.47;;;9.60;99.90;;;;;;5037429;28;20773;-62
2023/12/27 10:39:44;;;;;;;6.43;5.80;;;9.50;99.90;;;;;;5038399;28;20263;-62
2023/12/27 10:42:16;;;;;;;7.63;5.57;;;9.60;99.90;;;;;;5053541;28;20710;-62
2023/12/27 10:44:45;;;;;;;5.00;4.60;;;9.40;99.90;;;;;;5039296;28;20209;-62
2023/12/27 10:47:17;;;;;;;7.20;5.87;;;9.00;99.90;;;;;;5033509;28;20223;-62
2023/12/27 10:49:47;;;;;;;7.77;5.67;;;8.80;99.90;;;;;;5036738;28;20235;-62
2023/12/27 10:52:16;;;;;;;8.97;6.30;;;8.70;99.90;;;;;;5040918;28;20196;-62
2023/12/27 10:54:45;;;;;;;6.67;6.10;;;8.50;99.90;;;;;;5036909;28;20236;-62
2023/12/27 10:57:19;;;;;;;5.87;5.27;;;8.40;99.90;;;;;;5038137;28;20223;-62
2023/12/27 10:59:48;;;;;;;5.80;5.30;;;8.20;99.90;;;;;;5043335;28;20372;-62
2023/12/27 11:02:15;;;;;;;4.73;4.30;;;8.10;99.90;;;;;;5035556;28;20205;-62
2023/12/27 11:04:45;;;;;;;5.47;4.80;;;8.00;99.90;;;;;;5039556;28;20212;-60
2023/12/27 11:07:13;;;;;;;5.70;5.30;;;7.80;99.90;;;;;;5039682;28;20635;-60
2023/12/27 11:09:42;;;;;;;6.03;5.47;;;7.80;99.90;;;;;;5035965;28;20224;-60
2023/12/27 11:12:11;;;;;;;8.63;5.80;;;7.80;99.90;;;;;;5038662;28;20286;-60
2023/12/27 11:14:41;;;;;;;6.13;5.50;;;7.90;99.90;;;;;;5036522;28;20208;-60
2023/12/27 11:17:13;;;;;;;5.43;4.93;;;7.90;99.90;;;;;;5030027;28;20233;-60
2023/12/27 11:19:42;;;;;;;5.40;4.60;;;8.00;99.90;;;;;;5034822;28;20199;-60
2023/12/27 11:22:10;;;;;;;7.73;5.50;;;8.10;99.90;;;;;;5030006;28;20721;-60
2023/12/27 11:24:39;;;;;;;8.17;4.90;;;8.10;99.90;;;;;;5028612;28;20584;-60
2023/12/27 11:27:07;;;;;;;6.77;4.50;;;8.10;99.90;;;;;;5040750;28;20270;-60
2023/12/27 11:29:37;;;;;;;6.40;4.17;;;8.10;99.90;;;;;;5037729;28;20658;-60
2023/12/27 11:32:07;;;;;;;5.20;4.70;;;8.00;99.90;;;;;;5027714;28;20198;-60
2023/12/27 11:34:35;;;;;;;4.13;3.73;;;7.90;99.90;;;;;;5042238;28;20226;-60
2023/12/27 11:37:02;;;;;;;6.73;4.67;;;7.90;99.90;;;;;;5031025;28;20223;-60
2023/12/27 11:39:30;;;;;;;4.17;3.77;;;7.90;99.90;;;;;;5045537;28;20207;-60
2023/12/27 11:42:00;;;;;;;3.60;3.30;;;7.90;99.90;;;;;;5042518;28;20228;-61
2023/12/27 11:44:38;;;;;;;3.93;3.50;;;8.00;99.90;;;;;;5044194;28;20822;-61
2023/12/27 11:47:08;;;;;;;4.07;3.70;;;8.00;99.90;;;;;;5014809;28;20231;-60
2023/12/27 11:49:35;;;;;;;5.73;4.17;;;8.00;99.90;;;;;;5038528;28;20220;-60
2023/12/27 11:52:02;;;;;;;4.70;3.13;;;8.00;99.90;;;;;;5033639;28;20216;-60
2023/12/27 11:54:29;;;;;;;3.03;2.67;;;8.00;99.90;;;;;;5039113;28;20623;-60
2023/12/27 11:57:00;;;;;;;3.47;2.90;;;8.10;99.90;;;;;;5036826;28;20215;-60
2023/12/27 11:59:28;;;;;;;3.03;2.83;;;8.10;99.90;;;;;;5040888;28;20271;-60
2023/12/27 12:01:59;;;;;;;3.27;2.93;;;8.20;99.90;;;;;;5044179;28;20211;-60
2023/12/27 12:04:44;;;;;;;3.43;3.23;;;8.10;99.90;;;;;;5044646;28;20208;-60
2023/12/27 12:07:47;;;;;;;4.50;4.13;;;8.10;99.90;;;;;;5035619;28;20303;-61
2023/12/27 12:10:24;;;;;;;3.77;3.43;;;8.20;99.90;;;;;;5040152;28;20216;-60
2023/12/27 12:12:52;;;;;;;4.67;4.17;;;8.10;99.90;;;;;;5044260;28;20254;-61
2023/12/27 12:15:22;;;;;;;3.77;3.47;;;8.10;99.90;;;;;;5039650;28;20203;-60
2023/12/27 12:17:51;;;;;;;4.10;3.00;;;8.10;99.90;;;;;;5045180;28;20318;-60
2023/12/27 12:20:19;;;;;;;6.60;4.67;;;8.10;99.90;;;;;;5040802;28;20210;-60
2023/12/27 12:22:48;;;;;;;4.90;4.50;;;8.10;99.90;;;;;;5051610;28;20200;-60
2023/12/27 12:25:15;;;;;;;6.83;5.30;;;8.00;99.90;;;;;;5043538;28;20228;-60
2023/12/27 12:27:48;;;;;;;6.13;5.13;;;8.00;99.90;;;;;;5040293;28;20231;-61
2023/12/27 12:30:16;;;;;;;6.23;5.67;;;8.00;99.90;;;;;;5040797;28;20707;-60
2023/12/27 12:32:43;;;;;;;5.27;4.97;;;8.10;99.90;;;;;;5044184;28;20198;-60
2023/12/27 12:35:10;;;;;;;4.93;4.43;;;7.90;99.90;;;;;;5038459;28;20201;-60
2023/12/27 12:37:39;;;;;;;5.63;5.07;;;7.90;99.90;;;;;;5033509;28;20229;-60
2023/12/27 12:40:08;;;;;;;7.00;4.63;;;8.00;99.90;;;;;;5043965;28;20196;-60
2023/12/27 12:42:35;;;;;;;4.83;4.43;;;7.90;99.90;;;;;;5043876;28;20214;-60
2023/12/27 12:45:04;;;;;;;7.13;5.47;;;7.90;99.90;;;;;;5034112;28;20257;-60
2023/12/27 12:47:33;;;;;;;7.77;5.23;;;7.90;99.90;;;;;;5043975;28;20711;-60
2023/12/27 12:50:00;;;;;;;6.93;6.23;;;7.90;99.90;;;;;;5049711;28;20261;-60
2023/12/27 12:52:27;;;;;;;5.77;5.27;;;8.00;99.90;;;;;;5037852;28;20243;-60
2023/12/27 12:55:00;;;;;;;5.73;5.23;;;8.10;99.90;;;;;;5051910;28;20291;-60
2023/12/27 12:57:29;;;;;;;5.53;5.03;;;8.00;99.90;;;;;;5042613;28;20217;-60